createdAt,value
2018-05-08T00:00:46.338Z,101989.83
2018-05-08T00:03:13.779Z,101989.72
2018-05-08T00:05:41.186Z,101987.64
2018-05-08T00:08:08.623Z,101982.15
2018-05-08T00:10:36.033Z,101988.09
2018-05-08T00:13:03.480Z,101976.30
2018-05-08T00:15:30.885Z,101979.95
2018-05-08T00:17:58.325Z,101976.95
2018-05-08T00:20:25.814Z,101970.83
2018-05-08T00:22:53.205Z,101966.94
2018-05-08T00:25:20.608Z,101967.34
2018-05-08T00:27:48.026Z,101973.55
2018-05-08T00:30:15.453Z,101967.68
2018-05-08T00:32:42.860Z,101968.27
2018-05-08T00:35:10.301Z,101965.85
2018-05-08T00:37:37.725Z,101970.98
2018-05-08T00:40:05.161Z,101967.91
2018-05-08T00:42:33.517Z,101967.78
2018-05-08T00:45:00.953Z,101963.06
2018-05-08T00:47:28.375Z,101961.11
2018-05-08T00:49:55.806Z,101956.73
2018-05-08T00:52:23.215Z,101960.31
2018-05-08T00:55:02.374Z,101955.74
2018-05-08T00:57:29.794Z,101954.83
2018-05-08T00:59:57.233Z,101954.40
2018-05-08T01:02:24.645Z,101948.97
2018-05-08T01:04:52.084Z,101952.58
2018-05-08T01:07:19.496Z,101949.45
2018-05-08T01:09:46.929Z,101949.59
2018-05-08T01:12:14.335Z,101950.05
2018-05-08T01:14:41.785Z,101944.34
2018-05-08T01:17:09.216Z,101944.44
2018-05-08T01:19:36.641Z,101948.05
2018-05-08T01:22:04.513Z,101941.53
2018-05-08T01:24:31.922Z,101938.04
2018-05-08T01:27:00.365Z,101937.11
2018-05-08T01:29:28.710Z,101936.33
2018-05-08T01:31:56.142Z,101934.86
2018-05-08T01:34:23.649Z,101937.33
2018-05-08T01:36:51.081Z,101938.69
2018-05-08T01:39:18.533Z,101938.55
2018-05-08T01:41:45.965Z,101940.22
2018-05-08T01:44:13.380Z,101939.91
2018-05-08T01:46:40.826Z,101947.14
2018-05-08T01:49:08.238Z,101945.47
2018-05-08T01:51:35.677Z,101943.11
2018-05-08T01:54:03.090Z,101942.89
2018-05-08T01:56:30.545Z,101945.05
2018-05-08T01:58:57.956Z,101938.83
2018-05-08T02:01:25.405Z,101943.34
2018-05-08T02:03:52.813Z,101939.66
2018-05-08T02:06:20.229Z,101940.70
2018-05-08T02:08:47.673Z,101937.95
2018-05-08T02:11:15.074Z,101940.44
2018-05-08T02:13:42.514Z,101939.05
2018-05-08T02:16:10.901Z,101928.80
2018-05-08T02:18:38.345Z,101926.89
2018-05-08T02:21:05.749Z,101929.34
2018-05-08T02:23:33.201Z,101925.27
2018-05-08T02:26:00.736Z,101921.86
2018-05-08T02:28:29.026Z,101919.88
2018-05-08T02:30:56.446Z,101917.80
2018-05-08T02:33:23.889Z,101922.06
2018-05-08T02:35:51.297Z,101912.98
2018-05-08T02:38:18.735Z,101911.64
2018-05-08T02:40:46.145Z,101914.86
2018-05-08T02:43:13.579Z,101905.11
2018-05-08T02:45:40.990Z,101914.85
2018-05-08T02:48:08.442Z,101911.09
2018-05-08T02:50:35.856Z,101913.97
2018-05-08T02:53:03.268Z,101909.94
2018-05-08T02:55:30.709Z,101915.23
2018-05-08T02:57:59.465Z,101909.48
2018-05-08T03:00:26.895Z,101903.41
2018-05-08T03:02:54.305Z,101906.98
2018-05-08T03:05:21.750Z,101911.19
2018-05-08T03:07:49.165Z,101907.74
2018-05-08T03:10:16.595Z,101906.69
2018-05-08T03:12:44.006Z,101903.43
2018-05-08T03:15:11.437Z,101907.75
2018-05-08T03:17:39.778Z,101905.11
2018-05-08T03:20:07.214Z,101907.27
2018-05-08T03:22:34.621Z,101907.15
2018-05-08T03:25:02.588Z,101913.44
2018-05-08T03:27:29.999Z,101919.55
2018-05-08T03:29:57.441Z,101921.16
2018-05-08T03:32:24.856Z,101916.72
2018-05-08T03:34:52.257Z,101913.94
2018-05-08T03:37:19.697Z,101911.39
2018-05-08T03:39:47.105Z,101904.73
2018-05-08T03:42:14.545Z,101912.60
2018-05-08T03:44:42.002Z,101911.70
2018-05-08T03:47:09.398Z,101914.63
2018-05-08T03:49:36.805Z,101908.16
2018-05-08T03:52:04.245Z,101908.14
2018-05-08T03:54:31.654Z,101907.09
2018-05-08T03:56:59.113Z,101906.61
2018-05-08T03:59:27.008Z,101902.31
2018-05-08T04:02:06.465Z,101903.20
2018-05-08T04:04:46.765Z,101904.64
2018-05-08T04:07:25.950Z,101898.48
2018-05-08T04:09:54.161Z,101897.15
2018-05-08T04:12:21.617Z,101894.62
2018-05-08T04:14:49.034Z,101892.95
2018-05-08T04:17:16.463Z,101886.77
2018-05-08T04:19:43.889Z,101893.05
2018-05-08T04:22:11.345Z,101889.16
2018-05-08T04:24:38.762Z,101889.82
2018-05-08T04:27:06.180Z,101893.87
2018-05-08T04:29:34.557Z,101890.89
2018-05-08T04:32:01.969Z,101888.23
2018-05-08T04:34:29.402Z,101886.02
2018-05-08T04:36:57.345Z,101881.83
2018-05-08T04:39:24.790Z,101887.02
2018-05-08T04:41:52.211Z,101890.11
2018-05-08T04:44:19.658Z,101884.34
2018-05-08T04:46:47.072Z,101879.38
2018-05-08T04:49:14.516Z,101884.72
2018-05-08T04:51:41.940Z,101881.37
2018-05-08T04:54:09.377Z,101875.77
2018-05-08T04:56:36.799Z,101869.85
2018-05-08T04:59:04.237Z,101866.55
2018-05-08T05:01:31.642Z,101866.27
2018-05-08T05:03:59.079Z,101857.36
2018-05-08T05:06:26.911Z,101858.64
2018-05-08T05:08:54.324Z,101857.90
2018-05-08T05:11:21.772Z,101861.27
2018-05-08T05:13:49.534Z,101852.41
2018-05-08T05:16:16.969Z,101856.87
2018-05-08T05:18:45.110Z,101854.16
2018-05-08T05:21:12.557Z,101844.63
2018-05-08T05:23:39.973Z,101849.20
2018-05-08T05:26:08.311Z,101845.27
2018-05-08T05:28:35.721Z,101847.70
2018-05-08T05:31:04.064Z,101847.72
2018-05-08T05:33:31.477Z,101841.70
2018-05-08T05:35:59.876Z,101839.41
2018-05-08T05:38:27.285Z,101837.22
2018-05-08T05:40:54.715Z,101831.31
2018-05-08T05:43:22.606Z,101839.59
2018-05-08T05:45:50.038Z,101832.42
2018-05-08T05:48:17.840Z,101833.95
2018-05-08T05:50:46.174Z,101834.59
2018-05-08T05:53:13.612Z,101826.52
2018-05-08T05:55:41.042Z,101835.41
2018-05-08T05:58:08.460Z,101833.73
2018-05-08T06:00:36.397Z,101832.09
2018-05-08T06:03:03.838Z,101830.95
2018-05-08T06:05:31.246Z,101831.28
2018-05-08T06:07:58.678Z,101831.80
2018-05-08T06:10:26.085Z,101832.12
2018-05-08T06:12:55.522Z,101822.84
2018-05-08T06:15:22.941Z,101825.84
2018-05-08T06:17:50.373Z,101818.85
2018-05-08T06:20:17.786Z,101827.59
2018-05-08T06:22:45.214Z,101820.79
2018-05-08T06:25:12.625Z,101818.81
2018-05-08T06:27:40.065Z,101816.98
2018-05-08T06:30:07.482Z,101813.13
2018-05-08T06:32:34.921Z,101821.48
2018-05-08T06:35:02.337Z,101822.08
2018-05-08T06:37:29.794Z,101819.29
2018-05-08T06:39:58.148Z,101819.89
2018-05-08T06:42:29.318Z,101819.34
2018-05-08T06:44:56.763Z,101818.14
2018-05-08T06:47:24.170Z,101818.58
2018-05-08T06:49:51.611Z,101818.45
2018-05-08T06:52:25.375Z,101813.80
2018-05-08T06:54:53.805Z,101813.48
2018-05-08T06:57:21.152Z,101812.23
2018-05-08T06:59:53.195Z,101817.07
2018-05-08T07:02:20.610Z,101810.06
2018-05-08T07:04:49.026Z,101812.64
2018-05-08T07:07:21.869Z,101813.48
2018-05-08T07:09:51.236Z,101807.76
2018-05-08T07:12:21.893Z,101808.62
2018-05-08T07:14:50.327Z,101802.48
2018-05-08T07:17:17.741Z,101806.48
2018-05-08T07:19:45.222Z,101808.44
2018-05-08T07:22:12.657Z,101808.30
2018-05-08T07:24:43.627Z,101805.99
2018-05-08T07:27:11.966Z,101805.14
2018-05-08T07:29:39.424Z,101812.02
2018-05-08T07:32:08.832Z,101802.75
2018-05-08T07:34:36.322Z,101804.50
2018-05-08T07:37:03.746Z,101811.31
2018-05-08T07:39:31.186Z,101801.47
2018-05-08T07:41:58.613Z,101798.79
2018-05-08T07:44:27.066Z,101805.20
2018-05-08T07:46:54.522Z,101801.08
2018-05-08T07:49:21.969Z,101798.53
2018-05-08T07:51:49.427Z,101801.22
2018-05-08T07:54:16.825Z,101801.20
2018-05-08T07:56:44.254Z,101801.61
2018-05-08T07:59:11.688Z,101792.28
2018-05-08T08:01:39.158Z,101798.07
2018-05-08T08:04:06.644Z,101795.45
2018-05-08T08:06:34.086Z,101791.86
2018-05-08T08:09:01.502Z,101791.67
2018-05-08T08:11:28.978Z,101784.84
2018-05-08T08:13:56.405Z,101788.53
2018-05-08T08:16:23.857Z,101781.95
2018-05-08T08:18:51.286Z,101789.22
2018-05-08T08:21:18.713Z,101787.89
2018-05-08T08:23:46.179Z,101788.98
2018-05-08T08:26:13.576Z,101785.55
2018-05-08T08:28:40.992Z,101781.31
2018-05-08T08:31:08.538Z,101782.40
2018-05-08T08:33:35.949Z,101777.90
2018-05-08T08:36:03.362Z,101780.02
2018-05-08T08:38:30.897Z,101764.70
2018-05-08T08:40:58.395Z,101764.73
2018-05-08T08:43:25.745Z,101763.09
2018-05-08T08:45:53.160Z,101760.94
2018-05-08T08:48:20.598Z,101755.17
2018-05-08T08:50:49.110Z,101756.88
2018-05-08T08:53:17.477Z,101750.03
2018-05-08T08:55:44.901Z,101749.15
2018-05-08T08:58:12.341Z,101743.89
2018-05-08T09:00:39.754Z,101747.30
2018-05-08T09:03:07.205Z,101749.98
2018-05-08T09:05:34.677Z,101744.45
2018-05-08T09:08:02.241Z,101732.45
2018-05-08T09:10:29.653Z,101733.07
2018-05-08T09:12:57.105Z,101729.89
2018-05-08T09:15:24.516Z,101722.52
2018-05-08T09:17:51.953Z,101732.77
2018-05-08T09:20:19.373Z,101719.55
2018-05-08T09:22:46.782Z,101718.13
2018-05-08T09:25:14.222Z,101719.42
2018-05-08T09:27:41.673Z,101713.26
2018-05-08T09:30:09.090Z,101715.83
2018-05-08T09:32:36.598Z,101702.05
2018-05-08T09:35:04.041Z,101706.58
2018-05-08T09:37:31.449Z,101705.11
2018-05-08T09:39:58.889Z,101701.11
2018-05-08T09:42:26.329Z,101701.80
2018-05-08T09:44:53.778Z,101689.95
2018-05-08T09:47:21.342Z,101684.53
2018-05-08T09:49:48.796Z,101693.11
2018-05-08T09:52:16.217Z,101671.48
2018-05-08T09:54:44.633Z,101681.73
2018-05-08T09:57:12.046Z,101681.92
2018-05-08T09:59:39.550Z,101690.19
2018-05-08T10:02:06.962Z,101684.22
2018-05-08T10:04:34.370Z,101673.50
2018-05-08T10:07:01.810Z,101671.41
2018-05-08T10:09:29.221Z,101680.08
2018-05-08T10:11:56.836Z,101669.58
2018-05-08T10:14:24.286Z,101664.58
2018-05-08T10:16:51.732Z,101674.20
2018-05-08T10:19:19.139Z,101669.16
2018-05-08T10:21:46.590Z,101674.11
2018-05-08T10:24:14.011Z,101663.88
2018-05-08T10:26:41.489Z,101665.17
2018-05-08T10:29:08.925Z,101661.08
2018-05-08T10:31:36.374Z,101653.90
2018-05-08T10:34:03.815Z,101651.41
2018-05-08T10:36:31.250Z,101648.31
2018-05-08T10:38:58.749Z,101642.09
2018-05-08T10:41:26.229Z,101639.21
2018-05-08T10:43:53.639Z,101648.26
2018-05-08T10:46:21.052Z,101635.11
2018-05-08T10:48:48.580Z,101633.39
2018-05-08T10:51:15.997Z,101637.53
2018-05-08T10:53:43.447Z,101636.00
2018-05-08T10:56:10.946Z,101622.73
2018-05-08T10:58:38.401Z,101626.72
2018-05-08T11:01:05.822Z,101629.09
2018-05-08T11:03:33.256Z,101624.89
2018-05-08T11:06:00.782Z,101624.38
2018-05-08T11:08:28.238Z,101629.53
2018-05-08T11:10:55.688Z,101621.17
2018-05-08T11:13:23.114Z,101612.81
2018-05-08T11:15:50.557Z,101605.34
2018-05-08T11:18:18.053Z,101609.48
2018-05-08T11:20:45.505Z,101613.72
2018-05-08T11:23:12.920Z,101606.17
2018-05-08T11:25:40.354Z,101597.13
2018-05-08T11:28:07.778Z,101595.64
2018-05-08T11:30:35.225Z,101599.39
2018-05-08T11:33:02.651Z,101595.05
2018-05-08T11:35:30.086Z,101592.78
2018-05-08T11:37:57.499Z,101593.77
2018-05-08T11:40:24.934Z,101588.14
2018-05-08T11:42:52.357Z,101575.33
2018-05-08T11:45:19.802Z,101570.16
2018-05-08T11:47:47.224Z,101566.43
2018-05-08T11:50:14.686Z,101575.80
2018-05-08T11:52:42.131Z,101569.16
2018-05-08T11:55:09.565Z,101569.01
2018-05-08T11:57:37.014Z,101561.18
2018-05-08T12:00:04.422Z,101556.03
2018-05-08T12:02:31.932Z,101552.83
2018-05-08T12:04:59.329Z,101543.96
2018-05-08T12:07:26.770Z,101540.83
2018-05-08T12:09:54.181Z,101548.56
2018-05-08T12:12:21.698Z,101550.23
2018-05-08T12:14:49.183Z,101536.89
2018-05-08T12:17:16.561Z,101537.80
2018-05-08T12:19:43.970Z,101528.36
2018-05-08T12:22:11.434Z,101534.69
2018-05-08T12:24:38.853Z,101528.17
2018-05-08T12:27:06.340Z,101520.10
2018-05-08T12:29:33.753Z,101519.48
2018-05-08T12:32:01.171Z,101518.34
2018-05-08T12:34:28.705Z,101509.55
2018-05-08T12:36:56.117Z,101518.67
2018-05-08T12:39:23.558Z,101512.15
2018-05-08T12:41:50.969Z,101508.21
2018-05-08T12:44:18.408Z,101507.78
2018-05-08T12:46:45.833Z,101501.41
2018-05-08T12:49:13.270Z,101500.41
2018-05-08T12:51:40.684Z,101494.89
2018-05-08T12:54:08.154Z,101485.80
2018-05-08T12:56:35.570Z,101497.53
2018-05-08T12:59:03.109Z,101491.89
2018-05-08T13:01:30.522Z,101480.38
2018-05-08T13:03:57.979Z,101486.11
2018-05-08T13:06:25.374Z,101474.39
2018-05-08T13:08:52.890Z,101482.88
2018-05-08T13:11:20.338Z,101471.73
2018-05-08T13:13:47.746Z,101465.98
2018-05-08T13:16:15.185Z,101464.18
2018-05-08T13:18:42.617Z,101463.34
2018-05-08T13:21:10.095Z,101461.13
2018-05-08T13:23:37.539Z,101461.22
2018-05-08T13:26:04.982Z,101448.52
2018-05-08T13:28:32.405Z,101447.20
2018-05-08T13:30:59.971Z,101454.50
2018-05-08T13:33:27.313Z,101449.12
2018-05-08T13:35:54.818Z,101442.08
2018-05-08T13:38:22.225Z,101442.12
2018-05-08T13:40:49.665Z,101442.36
2018-05-08T13:43:17.177Z,101438.94
2018-05-08T13:45:44.593Z,101435.04
2018-05-08T13:48:12.152Z,101435.81
2018-05-08T13:50:39.555Z,101428.44
2018-05-08T13:53:06.992Z,101428.88
2018-05-08T13:55:34.399Z,101434.55
2018-05-08T13:58:01.829Z,101420.05
2018-05-08T14:00:29.242Z,101414.56
2018-05-08T14:02:56.809Z,101426.09
2018-05-08T14:05:24.294Z,101421.51
2018-05-08T14:07:51.766Z,101422.38
2018-05-08T14:10:19.182Z,101417.23
2018-05-08T14:12:46.594Z,101418.57
2018-05-08T14:15:14.225Z,101405.82
2018-05-08T14:17:41.649Z,101409.97
2018-05-08T14:20:09.097Z,101411.64
2018-05-08T14:22:36.503Z,101402.64
2018-05-08T14:25:03.938Z,101396.95
2018-05-08T14:27:31.354Z,101395.72
2018-05-08T14:29:58.874Z,101390.13
2018-05-08T14:32:26.326Z,101393.78
2018-05-08T14:34:53.779Z,101392.59
2018-05-08T14:37:21.198Z,101395.97
2018-05-08T14:39:48.689Z,101389.68
2018-05-08T14:42:16.130Z,101394.31
2018-05-08T14:44:43.554Z,101382.32
2018-05-08T14:47:10.983Z,101376.67
2018-05-08T14:49:38.459Z,101376.84
2018-05-08T14:52:05.865Z,101378.41
2018-05-08T14:54:33.291Z,101372.70
2018-05-08T14:57:00.718Z,101379.77
2018-05-08T14:59:28.129Z,101370.80
2018-05-08T15:01:55.580Z,101373.98
2018-05-08T15:04:23.144Z,101374.84
2018-05-08T15:06:50.510Z,101374.88
2018-05-08T15:09:17.949Z,101367.65
2018-05-08T15:11:45.408Z,101359.37
2018-05-08T15:14:12.805Z,101361.68
2018-05-08T15:16:40.229Z,101365.25
2018-05-08T15:19:07.686Z,101352.96
2018-05-08T15:21:35.129Z,101349.67
2018-05-08T15:24:02.605Z,101347.52
2018-05-08T15:26:30.022Z,101339.78
2018-05-08T15:28:57.523Z,101340.06
2018-05-08T15:31:24.933Z,101340.88
2018-05-08T15:33:52.362Z,101335.50
2018-05-08T15:36:19.770Z,101324.61
2018-05-08T15:38:47.205Z,101322.04
2018-05-08T15:41:14.701Z,101323.72
2018-05-08T15:43:42.149Z,101321.42
2018-05-08T15:46:09.568Z,101319.44
2018-05-08T15:48:37.066Z,101326.41
2018-05-08T15:51:04.485Z,101317.45
2018-05-08T15:53:31.921Z,101319.92
2018-05-08T15:55:59.325Z,101316.80
2018-05-08T15:58:26.766Z,101311.58
2018-05-08T16:00:54.244Z,101309.55
2018-05-08T16:03:21.702Z,101313.07
2018-05-08T16:05:49.151Z,101309.02
2018-05-08T16:08:16.550Z,101296.53
2018-05-08T16:10:43.986Z,101295.67
2018-05-08T16:13:11.388Z,101294.56
2018-05-08T16:15:38.817Z,101297.62
2018-05-08T16:18:06.230Z,101289.98
2018-05-08T16:20:33.683Z,101287.55
2018-05-08T16:23:01.093Z,101292.14
2018-05-08T16:25:28.534Z,101287.30
2018-05-08T16:27:55.938Z,101289.50
2018-05-08T16:30:23.454Z,101285.05
2018-05-08T16:32:50.798Z,101281.72
2018-05-08T16:35:19.255Z,101273.63
2018-05-08T16:37:46.669Z,101279.81
2018-05-08T16:40:14.103Z,101282.98
2018-05-08T16:42:41.512Z,101280.78
2018-05-08T16:45:08.918Z,101281.86
2018-05-08T16:47:37.432Z,101283.47
2018-05-08T16:50:04.770Z,101276.88
2018-05-08T16:52:32.209Z,101280.98
2018-05-08T16:54:59.626Z,101276.30
2018-05-08T16:57:27.073Z,101277.31
2018-05-08T16:59:54.497Z,101279.12
2018-05-08T17:02:21.935Z,101280.98
2018-05-08T17:04:49.358Z,101282.91
2018-05-08T17:07:16.792Z,101280.97
2018-05-08T17:09:44.200Z,101279.30
2018-05-08T17:12:11.638Z,101279.26
2018-05-08T17:14:39.054Z,101279.81
2018-05-08T17:17:06.503Z,101279.75
2018-05-08T17:19:33.923Z,101281.09
2018-05-08T17:22:01.359Z,101280.47
2018-05-08T17:24:28.771Z,101268.72
2018-05-08T17:26:57.130Z,101274.37
2018-05-08T17:29:24.544Z,101267.05
2018-05-08T17:31:52.849Z,101265.89
2018-05-08T17:34:20.301Z,101264.74
2018-05-08T17:36:47.718Z,101261.97
2018-05-08T17:39:15.151Z,101259.28
2018-05-08T17:41:42.586Z,101264.07
2018-05-08T17:44:10.031Z,101263.42
2018-05-08T17:46:37.449Z,101261.06
2018-05-08T17:49:04.894Z,101260.33
2018-05-08T17:51:32.309Z,101263.00
2018-05-08T17:53:59.757Z,101267.72
2018-05-08T17:56:27.757Z,101267.39
2018-05-08T17:58:56.094Z,101256.48
2018-05-08T18:01:24.516Z,101265.77
2018-05-08T18:03:51.961Z,101262.53
2018-05-08T18:06:19.372Z,101263.09
2018-05-08T18:08:46.817Z,101261.20
2018-05-08T18:11:14.231Z,101260.33
2018-05-08T18:13:42.587Z,101261.39
2018-05-08T18:16:09.990Z,101260.96
2018-05-08T18:18:37.451Z,101260.01
2018-05-08T18:21:04.877Z,101264.22
2018-05-08T18:23:32.286Z,101266.56
2018-05-08T18:25:59.722Z,101263.11
2018-05-08T18:28:28.227Z,101266.00
2018-05-08T18:30:55.656Z,101262.45
2018-05-08T18:33:23.134Z,101264.20
2018-05-08T18:35:52.574Z,101267.12
2018-05-08T18:38:19.994Z,101259.47
2018-05-08T18:40:47.473Z,101263.23
2018-05-08T18:43:14.923Z,101266.61
2018-05-08T18:45:43.274Z,101272.50
2018-05-08T18:48:10.713Z,101270.73
2018-05-08T18:50:38.154Z,101273.33
2018-05-08T18:53:05.567Z,101274.53
2018-05-08T18:55:33.002Z,101275.99
2018-05-08T18:58:00.430Z,101276.73
2018-05-08T19:00:27.862Z,101275.92
2018-05-08T19:02:56.282Z,101282.86
2018-05-08T19:05:23.783Z,101275.08
2018-05-08T19:07:51.261Z,101285.99
2018-05-08T19:10:18.710Z,101286.36
2018-05-08T19:12:46.142Z,101282.94
2018-05-08T19:15:19.306Z,101278.58
2018-05-08T19:17:46.745Z,101283.80
2018-05-08T19:20:14.157Z,101283.36
2018-05-08T19:22:41.684Z,101293.58
2018-05-08T19:25:10.077Z,101282.62
2018-05-08T19:27:37.510Z,101287.44
2018-05-08T19:30:10.497Z,101282.48
2018-05-08T19:32:37.946Z,101286.01
2018-05-08T19:35:11.065Z,101283.26
2018-05-08T19:37:44.310Z,101287.53
2018-05-08T19:40:11.725Z,101288.75
2018-05-08T19:42:39.160Z,101291.35
2018-05-08T19:45:06.594Z,101290.56
2018-05-08T19:47:34.039Z,101291.12
2018-05-08T19:50:01.450Z,101288.67
2018-05-08T19:52:29.905Z,101291.20
2018-05-08T19:54:57.302Z,101295.41
2018-05-08T19:57:24.738Z,101298.36
2018-05-08T19:59:53.154Z,101296.66
2018-05-08T20:02:20.738Z,101297.66
2018-05-08T20:04:48.075Z,101300.49
2018-05-08T20:07:15.559Z,101299.77
2018-05-08T20:09:42.994Z,101295.78
2018-05-08T20:12:10.467Z,101301.92
2018-05-08T20:14:37.898Z,101299.53
2018-05-08T20:17:05.360Z,101298.47
2018-05-08T20:19:32.766Z,101299.30
2018-05-08T20:22:00.181Z,101299.13
2018-05-08T20:24:27.632Z,101302.69
2018-05-08T20:26:55.040Z,101299.03
2018-05-08T20:29:22.635Z,101304.87
2018-05-08T20:31:49.982Z,101298.66
2018-05-08T20:34:18.387Z,101295.50
2018-05-08T20:36:45.798Z,101298.06
2018-05-08T20:39:14.104Z,101294.87
2018-05-08T20:41:41.583Z,101297.11
2018-05-08T20:44:09.046Z,101300.09
2018-05-08T20:46:36.471Z,101304.44
2018-05-08T20:49:03.917Z,101291.81
2018-05-08T20:51:31.318Z,101301.59
2018-05-08T20:53:58.765Z,101298.77
2018-05-08T20:56:26.222Z,101304.83
2018-05-08T20:58:53.674Z,101301.92
2018-05-08T21:01:21.219Z,101301.42
2018-05-08T21:03:48.534Z,101297.62
2018-05-08T21:06:15.974Z,101302.61
2018-05-08T21:08:43.386Z,101295.88
2018-05-08T21:11:10.837Z,101296.31
2018-05-08T21:13:39.247Z,101295.81
2018-05-08T21:16:06.723Z,101298.47
2018-05-08T21:18:34.129Z,101291.98
2018-05-08T21:21:01.570Z,101298.47
2018-05-08T21:23:29.066Z,101290.58
2018-05-08T21:25:56.501Z,101293.98
2018-05-08T21:28:29.481Z,101288.66
2018-05-08T21:31:02.479Z,101284.20
2018-05-08T21:33:29.896Z,101281.88
2018-05-08T21:35:57.412Z,101281.72
2018-05-08T21:38:24.828Z,101284.60
2018-05-08T21:40:52.266Z,101287.35
2018-05-08T21:43:19.743Z,101286.11
2018-05-08T21:45:47.166Z,101286.75
2018-05-08T21:48:14.601Z,101288.00
2018-05-08T21:50:42.149Z,101293.72
2018-05-08T21:53:10.517Z,101293.72
2018-05-08T21:55:37.921Z,101287.77
2018-05-08T21:58:05.349Z,101281.44
2018-05-08T22:00:32.762Z,101281.61
2018-05-08T22:03:00.214Z,101279.88
2018-05-08T22:05:31.049Z,101283.36
2018-05-08T22:07:59.385Z,101277.36
2018-05-08T22:10:26.798Z,101282.59
2018-05-08T22:12:54.233Z,101290.98
2018-05-08T22:15:21.646Z,101285.16
2018-05-08T22:17:49.091Z,101288.21
2018-05-08T22:20:18.554Z,101285.87
2018-05-08T22:22:45.917Z,101284.45
2018-05-08T22:25:14.295Z,101287.11
2018-05-08T22:27:41.738Z,101276.66
2018-05-08T22:30:09.153Z,101283.22
2018-05-08T22:32:36.595Z,101284.87
2018-05-08T22:35:04.217Z,101281.98
2018-05-08T22:37:31.711Z,101279.89
2018-05-08T22:39:59.095Z,101276.98
2018-05-08T22:42:26.567Z,101280.20
2018-05-08T22:44:54.010Z,101275.86
2018-05-08T22:47:21.436Z,101274.30
2018-05-08T22:49:48.874Z,101277.98
2018-05-08T22:52:16.298Z,101273.84
2018-05-08T22:54:43.738Z,101265.81
2018-05-08T22:57:11.178Z,101268.44
2018-05-08T22:59:38.615Z,101267.39
2018-05-08T23:02:06.033Z,101272.25
2018-05-08T23:04:33.469Z,101273.49
2018-05-08T23:07:01.838Z,101267.53
2018-05-08T23:09:29.283Z,101266.84
2018-05-08T23:11:56.695Z,101268.53
2018-05-08T23:14:24.129Z,101270.68
2018-05-08T23:16:51.537Z,101265.27
2018-05-08T23:19:19.093Z,101259.23
2018-05-08T23:21:46.553Z,101265.24
2018-05-08T23:24:13.963Z,101257.48
2018-05-08T23:26:41.430Z,101258.75
2018-05-08T23:29:08.838Z,101264.05
2018-05-08T23:31:36.273Z,101262.80
2018-05-08T23:34:03.681Z,101260.63
2018-05-08T23:36:31.110Z,101261.03
2018-05-08T23:38:58.520Z,101257.39
2018-05-08T23:41:25.953Z,101256.65
2018-05-08T23:43:53.365Z,101261.12
2018-05-08T23:46:20.797Z,101255.73
2018-05-08T23:48:48.214Z,101251.44
2018-05-08T23:51:15.650Z,101252.06
2018-05-08T23:53:43.131Z,101251.31
2018-05-08T23:56:10.498Z,101245.49
2018-05-08T23:58:37.917Z,101248.51
